createdAt,value
2023-05-09T00:00:54.248Z,88.95
2023-05-09T00:01:50.979Z,88.40
2023-05-09T00:02:47.893Z,88.68
2023-05-09T00:03:44.508Z,89.68
2023-05-09T00:04:41.711Z,89.15
2023-05-09T00:05:38.854Z,88.86
2023-05-09T00:06:35.480Z,88.75
2023-05-09T00:07:32.097Z,88.79
2023-05-09T00:08:28.850Z,88.79
2023-05-09T00:09:25.604Z,88.24
2023-05-09T00:10:22.478Z,88.09
2023-05-09T00:11:19.081Z,86.98
2023-05-09T00:12:15.711Z,86.09
2023-05-09T00:13:12.366Z,86.85
2023-05-09T00:14:09.151Z,87.25
2023-05-09T00:15:08.439Z,87.58
2023-05-09T00:16:06.008Z,87.11
2023-05-09T00:17:02.881Z,87.01
2023-05-09T00:17:59.590Z,87.33
2023-05-09T00:18:58.043Z,88.25
2023-05-09T00:19:55.453Z,87.66
2023-05-09T00:20:52.144Z,86.91
2023-05-09T00:21:48.905Z,87.19
2023-05-09T00:22:45.700Z,87.57
2023-05-09T00:23:44.434Z,87.33
2023-05-09T00:24:41.122Z,87.16
2023-05-09T00:25:37.732Z,87.38
2023-05-09T00:26:34.350Z,87.50
2023-05-09T00:27:30.929Z,87.10
2023-05-09T00:28:27.631Z,86.65
2023-05-09T00:29:24.239Z,85.66
2023-05-09T00:30:20.861Z,85.83
2023-05-09T00:31:17.487Z,85.71
2023-05-09T00:32:14.082Z,86.05
2023-05-09T00:33:10.923Z,86.57
2023-05-09T00:34:07.543Z,87.16
2023-05-09T00:35:04.497Z,86.77
2023-05-09T00:36:01.189Z,86.72
2023-05-09T00:36:57.779Z,86.93
2023-05-09T00:37:54.396Z,87.40
2023-05-09T00:38:51.130Z,87.61
2023-05-09T00:39:50.504Z,87.17
2023-05-09T00:40:47.158Z,87.55
2023-05-09T00:41:43.755Z,87.58
2023-05-09T00:42:40.822Z,87.40
2023-05-09T00:43:37.528Z,87.58
2023-05-09T00:44:34.190Z,87.58
2023-05-09T00:45:31.290Z,87.79
2023-05-09T00:46:28.073Z,87.40
2023-05-09T00:47:24.944Z,88.03
2023-05-09T00:48:22.263Z,88.21
2023-05-09T00:49:18.890Z,87.13
2023-05-09T00:50:15.499Z,88.11
2023-05-09T00:51:13.480Z,88.39
2023-05-09T00:52:10.085Z,88.53
2023-05-09T00:53:07.486Z,88.23
2023-05-09T00:54:06.005Z,87.57
2023-05-09T00:55:04.782Z,87.61
2023-05-09T00:56:02.202Z,87.29
2023-05-09T00:56:58.980Z,87.51
2023-05-09T00:57:55.614Z,87.46
2023-05-09T00:58:52.647Z,87.62
2023-05-09T00:59:49.575Z,87.64
2023-05-09T01:00:46.582Z,88.27
2023-05-09T01:01:43.247Z,88.35
2023-05-09T01:02:59.854Z,87.75
2023-05-09T01:03:56.649Z,87.71
2023-05-09T01:04:53.644Z,88.45
2023-05-09T01:05:56.723Z,88.81
2023-05-09T01:07:37.371Z,88.75
2023-05-09T01:08:33.945Z,89.75
2023-05-09T01:09:59.894Z,89.85
2023-05-09T01:11:31.556Z,90.10
2023-05-09T01:12:49.987Z,90.73
2023-05-09T01:14:14.721Z,90.47
2023-05-09T01:15:21.728Z,90.14
2023-05-09T01:16:30.544Z,90.25
2023-05-09T01:17:38.136Z,89.82
2023-05-09T01:18:47.203Z,89.82
2023-05-09T01:20:13.108Z,89.98
2023-05-09T01:21:17.431Z,90.05
2023-05-09T01:22:16.499Z,89.94
2023-05-09T01:23:38.026Z,90.20
2023-05-09T01:24:44.727Z,89.56
2023-05-09T01:25:55.389Z,89.56
2023-05-09T01:27:33.409Z,89.49
2023-05-09T01:28:55.725Z,89.33
2023-05-09T01:29:57.859Z,89.02
2023-05-09T01:30:55.645Z,88.74
2023-05-09T01:31:54.709Z,89.23
2023-05-09T01:32:53.995Z,89.25
2023-05-09T01:34:02.882Z,89.64
2023-05-09T01:35:01.942Z,90.55
2023-05-09T01:36:06.806Z,89.89
2023-05-09T01:37:05.830Z,89.15
2023-05-09T01:38:09.625Z,88.94
2023-05-09T01:39:07.708Z,89.15
2023-05-09T01:40:08.410Z,89.24
2023-05-09T01:41:09.355Z,88.39
2023-05-09T01:42:08.482Z,87.80
2023-05-09T01:43:08.470Z,87.62
2023-05-09T01:44:10.139Z,87.85
2023-05-09T01:45:08.340Z,88.41
2023-05-09T01:46:09.279Z,88.78
2023-05-09T01:47:07.850Z,88.82
2023-05-09T01:48:07.052Z,89.02
2023-05-09T01:49:05.604Z,89.73
2023-05-09T01:50:04.589Z,89.37
2023-05-09T01:51:02.467Z,89.35
2023-05-09T01:52:01.503Z,89.52
2023-05-09T01:53:01.413Z,89.39
2023-05-09T01:53:59.953Z,89.63
2023-05-09T01:54:56.967Z,89.74
2023-05-09T01:55:55.516Z,90.14
2023-05-09T01:56:54.793Z,90.16
2023-05-09T01:57:53.586Z,90.29
2023-05-09T01:58:51.775Z,90.40
2023-05-09T01:59:49.347Z,90.23
2023-05-09T02:00:48.198Z,90.12
2023-05-09T02:01:46.947Z,89.60
2023-05-09T02:02:44.357Z,89.39
2023-05-09T02:03:42.974Z,89.30
2023-05-09T02:04:41.889Z,89.21
2023-05-09T02:05:40.031Z,89.05
2023-05-09T02:06:37.307Z,88.38
2023-05-09T02:07:35.065Z,88.43
2023-05-09T02:08:32.883Z,88.92
2023-05-09T02:09:29.552Z,88.78
2023-05-09T02:10:30.738Z,88.86
2023-05-09T02:11:27.538Z,89.04
2023-05-09T02:12:24.589Z,88.72
2023-05-09T02:13:21.317Z,88.89
2023-05-09T02:14:18.140Z,88.47
2023-05-09T02:15:15.291Z,89.00
2023-05-09T02:16:12.898Z,88.40
2023-05-09T02:17:10.785Z,88.36
2023-05-09T02:18:07.369Z,87.67
2023-05-09T02:19:03.930Z,87.52
2023-05-09T02:20:00.578Z,87.81
2023-05-09T02:20:57.240Z,88.40
2023-05-09T02:21:53.815Z,88.06
2023-05-09T02:22:50.951Z,87.57
2023-05-09T02:23:47.846Z,87.09
2023-05-09T02:24:47.459Z,87.27
2023-05-09T02:25:44.376Z,87.95
2023-05-09T02:26:41.513Z,87.60
2023-05-09T02:27:39.881Z,87.50
2023-05-09T02:28:37.789Z,87.69
2023-05-09T02:29:49.291Z,87.45
2023-05-09T02:30:49.832Z,86.92
2023-05-09T02:31:48.651Z,87.94
2023-05-09T02:32:49.023Z,89.18
2023-05-09T02:33:48.008Z,89.82
2023-05-09T02:34:47.033Z,89.74
2023-05-09T02:35:46.384Z,89.84
2023-05-09T02:36:43.486Z,89.72
2023-05-09T02:37:40.709Z,88.84
2023-05-09T02:38:37.552Z,88.06
2023-05-09T02:39:35.021Z,87.50
2023-05-09T02:40:31.930Z,87.11
2023-05-09T02:41:29.067Z,87.22
2023-05-09T02:42:26.748Z,86.98
2023-05-09T02:43:23.644Z,87.21
2023-05-09T02:44:20.490Z,86.74
2023-05-09T02:45:17.253Z,86.36
2023-05-09T02:46:13.870Z,86.66
2023-05-09T02:47:10.546Z,87.01
2023-05-09T02:48:08.949Z,87.88
2023-05-09T02:49:06.068Z,88.00
2023-05-09T02:50:02.703Z,88.11
2023-05-09T02:50:59.341Z,87.67
2023-05-09T02:51:55.940Z,87.94
2023-05-09T02:52:52.582Z,87.93
2023-05-09T02:53:49.155Z,88.38
2023-05-09T02:54:46.126Z,88.06
2023-05-09T02:55:42.720Z,87.87
2023-05-09T02:56:39.333Z,88.03
2023-05-09T02:57:36.481Z,88.22
2023-05-09T02:58:32.990Z,88.07
2023-05-09T02:59:29.940Z,87.26
2023-05-09T03:00:26.734Z,87.27
2023-05-09T03:01:23.377Z,87.52
2023-05-09T03:02:20.159Z,87.26
2023-05-09T03:03:18.292Z,86.66
2023-05-09T03:04:14.988Z,86.50
2023-05-09T03:05:11.587Z,85.94
2023-05-09T03:06:08.504Z,85.03
2023-05-09T03:07:05.094Z,85.71
2023-05-09T03:08:01.758Z,85.20
2023-05-09T03:08:58.318Z,85.58
2023-05-09T03:09:54.926Z,85.10
2023-05-09T03:10:51.753Z,85.44
2023-05-09T03:11:48.347Z,85.60
2023-05-09T03:12:44.935Z,86.25
2023-05-09T03:13:41.631Z,85.77
2023-05-09T03:14:38.308Z,85.54
2023-05-09T03:15:34.869Z,85.45
2023-05-09T03:16:31.716Z,85.28
2023-05-09T03:17:28.383Z,84.90
2023-05-09T03:18:25.050Z,85.01
2023-05-09T03:19:21.641Z,84.68
2023-05-09T03:20:18.310Z,84.54
2023-05-09T03:21:14.923Z,84.39
2023-05-09T03:22:11.521Z,84.68
2023-05-09T03:23:08.211Z,85.33
2023-05-09T03:24:05.192Z,85.01
2023-05-09T03:25:02.165Z,84.87
2023-05-09T03:25:58.733Z,85.30
2023-05-09T03:26:55.432Z,85.60
2023-05-09T03:27:52.108Z,84.86
2023-05-09T03:28:49.050Z,84.51
2023-05-09T03:29:45.630Z,84.28
2023-05-09T03:30:42.183Z,84.56
2023-05-09T03:31:38.795Z,84.64
2023-05-09T03:32:35.494Z,84.66
2023-05-09T03:33:32.203Z,84.55
2023-05-09T03:34:29.008Z,84.52
2023-05-09T03:35:25.798Z,83.85
2023-05-09T03:36:23.293Z,84.02
2023-05-09T03:37:19.926Z,83.64
2023-05-09T03:38:16.484Z,82.87
2023-05-09T03:39:13.155Z,83.09
2023-05-09T03:40:10.179Z,83.30
2023-05-09T03:41:06.803Z,83.22
2023-05-09T03:42:03.551Z,84.23
2023-05-09T03:43:00.129Z,84.37
2023-05-09T03:43:56.700Z,83.97
2023-05-09T03:44:53.360Z,84.02
2023-05-09T03:45:49.984Z,84.56
2023-05-09T03:46:46.584Z,85.05
2023-05-09T03:47:43.309Z,85.62
2023-05-09T03:48:39.995Z,85.68
2023-05-09T03:49:36.861Z,85.09
2023-05-09T03:50:33.610Z,85.24
2023-05-09T03:51:30.778Z,85.06
2023-05-09T03:52:27.400Z,85.33
2023-05-09T03:53:23.985Z,85.07
2023-05-09T03:54:20.809Z,85.53
2023-05-09T03:55:17.391Z,85.59
2023-05-09T03:56:14.467Z,85.01
2023-05-09T03:57:11.041Z,84.60
2023-05-09T03:58:07.705Z,85.52
2023-05-09T03:59:04.312Z,85.71
2023-05-09T04:00:01.002Z,86.00
2023-05-09T04:00:57.719Z,86.10
2023-05-09T04:01:54.452Z,86.21
2023-05-09T04:02:51.278Z,86.10
2023-05-09T04:03:48.135Z,86.50
2023-05-09T04:04:44.933Z,85.76
2023-05-09T04:05:41.742Z,84.68
2023-05-09T04:06:38.417Z,84.29
2023-05-09T04:07:34.989Z,83.66
2023-05-09T04:08:32.602Z,84.62
2023-05-09T04:09:30.281Z,84.54
2023-05-09T04:10:26.953Z,84.15
2023-05-09T04:11:23.576Z,83.83
2023-05-09T04:12:20.201Z,83.74
2023-05-09T04:13:17.086Z,82.96
2023-05-09T04:14:13.810Z,82.92
2023-05-09T04:15:11.174Z,82.60
2023-05-09T04:16:07.826Z,82.40
2023-05-09T04:17:04.614Z,82.95
2023-05-09T04:18:01.318Z,83.96
2023-05-09T04:18:58.043Z,83.08
2023-05-09T04:19:54.684Z,83.36
2023-05-09T04:20:51.268Z,83.79
2023-05-09T04:21:47.813Z,84.01
2023-05-09T04:22:46.716Z,83.19
2023-05-09T04:23:43.786Z,82.40
2023-05-09T04:24:40.761Z,82.53
2023-05-09T04:25:37.394Z,82.83
2023-05-09T04:26:37.989Z,81.58
2023-05-09T04:27:34.619Z,81.37
2023-05-09T04:28:31.537Z,81.62
2023-05-09T04:29:28.286Z,81.44
2023-05-09T04:30:27.161Z,80.95
2023-05-09T04:31:23.875Z,81.38
2023-05-09T04:32:20.936Z,81.74
2023-05-09T04:33:17.618Z,82.15
2023-05-09T04:34:14.186Z,82.96
2023-05-09T04:35:10.793Z,82.73
2023-05-09T04:36:07.924Z,82.29
2023-05-09T04:37:04.533Z,82.65
2023-05-09T04:38:01.107Z,82.38
2023-05-09T04:38:57.696Z,82.29
2023-05-09T04:39:54.246Z,82.37
2023-05-09T04:40:50.968Z,81.82
2023-05-09T04:41:47.991Z,81.58
2023-05-09T04:42:45.278Z,82.33
2023-05-09T04:43:42.552Z,81.55
2023-05-09T04:44:39.236Z,80.89
2023-05-09T04:45:36.002Z,80.04
2023-05-09T04:46:32.606Z,79.79
2023-05-09T04:47:29.216Z,80.20
2023-05-09T04:48:25.789Z,80.08
2023-05-09T04:49:22.377Z,79.27
2023-05-09T04:50:18.952Z,79.65
2023-05-09T04:51:15.535Z,79.60
2023-05-09T04:52:12.154Z,79.25
2023-05-09T04:53:09.195Z,78.96
2023-05-09T04:54:06.834Z,77.85
2023-05-09T04:55:03.578Z,77.77
2023-05-09T04:56:00.704Z,78.58
2023-05-09T04:57:09.964Z,78.42
2023-05-09T04:58:10.744Z,77.61
2023-05-09T04:59:07.596Z,77.71
2023-05-09T05:00:07.121Z,76.77
2023-05-09T05:01:04.744Z,76.97
2023-05-09T05:02:01.509Z,78.20
2023-05-09T05:02:58.113Z,78.04
2023-05-09T05:03:54.682Z,77.31
2023-05-09T05:04:53.010Z,76.06
2023-05-09T05:05:52.954Z,76.46
2023-05-09T05:06:49.638Z,75.72
2023-05-09T05:07:46.171Z,73.95
2023-05-09T05:08:43.236Z,73.78
2023-05-09T05:09:39.835Z,74.22
2023-05-09T05:10:36.429Z,73.50
2023-05-09T05:11:33.014Z,73.15
2023-05-09T05:12:29.580Z,73.12
2023-05-09T05:13:26.179Z,73.39
2023-05-09T05:14:22.795Z,74.46
2023-05-09T05:15:21.911Z,72.73
2023-05-09T05:16:18.497Z,71.96
2023-05-09T05:17:17.222Z,71.58
2023-05-09T05:18:13.809Z,72.26
2023-05-09T05:19:10.445Z,72.71
2023-05-09T05:20:08.442Z,72.02
2023-05-09T05:21:05.041Z,71.51
2023-05-09T05:22:01.779Z,71.39
2023-05-09T05:22:58.517Z,71.24
2023-05-09T05:23:55.136Z,74.02
2023-05-09T05:24:51.712Z,75.49
2023-05-09T05:25:48.268Z,74.97
2023-05-09T05:26:45.573Z,75.41
2023-05-09T05:27:42.195Z,75.48
2023-05-09T05:28:38.846Z,76.30
2023-05-09T05:29:35.431Z,76.47
2023-05-09T05:30:34.219Z,76.05
2023-05-09T05:31:31.164Z,75.91
2023-05-09T05:32:28.064Z,76.59
2023-05-09T05:33:24.884Z,75.20
2023-05-09T05:34:21.509Z,75.77
2023-05-09T05:35:18.270Z,76.27
2023-05-09T05:36:14.869Z,74.25
2023-05-09T05:37:11.515Z,75.23
2023-05-09T05:38:08.182Z,77.76
2023-05-09T05:39:04.806Z,79.15
2023-05-09T05:40:01.539Z,79.35
2023-05-09T05:40:58.197Z,78.84
2023-05-09T05:41:54.913Z,79.80
2023-05-09T05:42:51.547Z,79.39
2023-05-09T05:43:48.125Z,79.86
2023-05-09T05:44:44.680Z,78.60
2023-05-09T05:45:41.609Z,78.12
2023-05-09T05:46:38.271Z,78.82
2023-05-09T05:47:36.043Z,78.79
2023-05-09T05:48:33.136Z,79.37
2023-05-09T05:49:29.790Z,79.10
2023-05-09T05:50:26.403Z,77.91
2023-05-09T05:51:23.061Z,76.86
2023-05-09T05:52:19.598Z,77.59
2023-05-09T05:53:16.276Z,78.55
2023-05-09T05:54:13.072Z,78.68
2023-05-09T05:55:09.904Z,79.03
2023-05-09T05:56:06.731Z,79.24
2023-05-09T05:57:03.466Z,79.87
2023-05-09T05:58:00.257Z,79.53
2023-05-09T05:58:57.027Z,79.81
2023-05-09T05:59:53.561Z,79.41
2023-05-09T06:00:52.354Z,79.19
2023-05-09T06:01:48.999Z,78.60
2023-05-09T06:02:45.843Z,79.14
2023-05-09T06:03:42.818Z,79.01
2023-05-09T06:04:39.561Z,78.47
2023-05-09T06:05:36.163Z,77.82
2023-05-09T06:06:32.906Z,78.17
2023-05-09T06:07:29.653Z,77.34
2023-05-09T06:08:26.817Z,78.24
2023-05-09T06:09:23.358Z,77.49
2023-05-09T06:10:19.972Z,77.42
2023-05-09T06:11:17.454Z,74.92
2023-05-09T06:12:17.050Z,76.59
2023-05-09T06:13:13.658Z,76.46
2023-05-09T06:14:10.358Z,75.86
2023-05-09T06:15:07.487Z,75.81
2023-05-09T06:16:18.707Z,76.52
2023-05-09T06:17:17.105Z,73.80
2023-05-09T06:18:13.990Z,75.16
2023-05-09T06:19:10.667Z,75.76
2023-05-09T06:20:07.742Z,75.31
2023-05-09T06:21:04.617Z,76.69
2023-05-09T06:22:01.236Z,76.28
2023-05-09T06:22:57.791Z,76.19
2023-05-09T06:24:54.194Z,73.81
2023-05-09T06:25:50.845Z,73.69
2023-05-09T06:26:47.416Z,71.94
2023-05-09T06:27:44.735Z,71.28
2023-05-09T06:28:41.681Z,72.00
2023-05-09T06:29:38.310Z,72.63
2023-05-09T06:30:34.866Z,72.94
2023-05-09T06:31:32.010Z,70.14
2023-05-09T06:32:28.712Z,72.12
2023-05-09T06:33:25.445Z,72.91
2023-05-09T06:34:22.105Z,71.21
2023-05-09T06:35:18.721Z,71.05
2023-05-09T06:36:15.397Z,70.92
2023-05-09T06:37:11.967Z,71.65
2023-05-09T06:38:08.551Z,70.95
2023-05-09T06:39:05.157Z,69.25
2023-05-09T06:40:01.722Z,69.89
2023-05-09T06:40:58.395Z,70.39
2023-05-09T06:41:54.974Z,69.97
2023-05-09T06:42:51.530Z,69.19
2023-05-09T06:43:48.996Z,69.07
2023-05-09T06:44:46.549Z,68.27
2023-05-09T06:45:43.132Z,67.89
2023-05-09T06:46:39.819Z,66.16
2023-05-09T06:47:36.464Z,67.88
2023-05-09T06:48:33.107Z,68.86
2023-05-09T06:49:29.729Z,69.33
2023-05-09T06:50:26.603Z,68.35
2023-05-09T06:51:23.270Z,67.53
2023-05-09T06:52:21.593Z,66.27
2023-05-09T06:53:18.235Z,66.29
2023-05-09T06:54:14.948Z,66.15
2023-05-09T06:55:11.606Z,67.37
2023-05-09T06:56:08.327Z,67.78
2023-05-09T06:57:05.051Z,66.88
2023-05-09T06:58:01.797Z,69.31
2023-05-09T06:58:58.527Z,67.44
2023-05-09T06:59:55.266Z,67.42
2023-05-09T07:00:51.931Z,68.23
2023-05-09T07:01:48.498Z,68.70
2023-05-09T07:02:45.410Z,68.44
2023-05-09T07:03:42.421Z,66.46
2023-05-09T07:04:39.055Z,69.58
2023-05-09T07:05:35.760Z,70.61
2023-05-09T07:06:32.983Z,68.34
2023-05-09T07:07:29.597Z,67.18
2023-05-09T07:08:26.889Z,67.26
2023-05-09T07:09:27.900Z,68.19
2023-05-09T07:10:24.758Z,69.45
2023-05-09T07:11:21.470Z,70.01
2023-05-09T07:12:18.122Z,67.80
2023-05-09T07:13:14.698Z,67.69
2023-05-09T07:14:11.386Z,66.19
2023-05-09T07:15:08.754Z,65.69
2023-05-09T07:16:05.730Z,65.39
2023-05-09T07:17:18.212Z,67.66
2023-05-09T07:18:19.006Z,68.52
2023-05-09T07:19:15.772Z,67.44
2023-05-09T07:20:12.526Z,66.83
2023-05-09T07:21:09.113Z,63.88
2023-05-09T07:22:05.779Z,65.67
2023-05-09T07:23:05.993Z,65.22
2023-05-09T07:24:02.638Z,64.48
2023-05-09T07:24:59.280Z,65.27
2023-05-09T07:25:58.233Z,64.06
2023-05-09T07:26:54.849Z,65.25
2023-05-09T07:27:51.522Z,65.76
2023-05-09T07:28:48.105Z,68.51
2023-05-09T07:29:44.760Z,66.50
2023-05-09T07:30:42.702Z,66.09
2023-05-09T07:31:39.293Z,67.15
2023-05-09T07:32:36.138Z,66.26
2023-05-09T07:33:33.766Z,65.94
2023-05-09T07:34:30.363Z,65.80
2023-05-09T07:35:27.157Z,64.91
2023-05-09T07:36:23.796Z,66.58
2023-05-09T07:37:20.534Z,67.84
2023-05-09T07:38:17.162Z,65.63
2023-05-09T07:39:13.719Z,66.01
2023-05-09T07:40:10.829Z,66.84
2023-05-09T07:41:07.636Z,68.17
2023-05-09T07:42:04.397Z,69.09
2023-05-09T07:43:00.971Z,69.10
2023-05-09T07:43:57.773Z,66.58
2023-05-09T07:44:54.455Z,64.54
2023-05-09T07:45:51.071Z,63.72
2023-05-09T07:46:47.823Z,65.18
2023-05-09T07:47:44.647Z,67.90
2023-05-09T07:48:41.607Z,67.27
2023-05-09T07:49:38.314Z,65.64
2023-05-09T07:50:34.959Z,67.78
2023-05-09T07:51:32.262Z,67.55
2023-05-09T07:52:29.009Z,67.53
2023-05-09T07:53:25.703Z,69.04
2023-05-09T07:54:22.321Z,66.29
2023-05-09T07:55:18.978Z,63.49
2023-05-09T07:56:15.527Z,64.21
2023-05-09T07:57:12.231Z,64.06
2023-05-09T07:58:08.771Z,64.37
2023-05-09T07:59:05.490Z,63.18
2023-05-09T08:00:02.283Z,65.00
2023-05-09T08:00:59.023Z,67.19
2023-05-09T08:01:55.726Z,67.91
2023-05-09T08:02:53.486Z,66.56
2023-05-09T08:03:50.379Z,66.33
2023-05-09T08:04:49.101Z,67.64
2023-05-09T08:05:45.836Z,64.71
2023-05-09T08:06:42.577Z,63.87
2023-05-09T08:07:39.365Z,64.50
2023-05-09T08:08:37.143Z,64.09
2023-05-09T08:09:35.443Z,65.30
2023-05-09T08:10:33.581Z,64.48
2023-05-09T08:11:32.546Z,65.82
2023-05-09T08:12:29.125Z,65.82
2023-05-09T08:13:25.970Z,66.48
2023-05-09T08:14:22.966Z,67.03
2023-05-09T08:15:19.605Z,65.88
2023-05-09T08:16:17.610Z,64.87
2023-05-09T08:17:14.313Z,64.61
2023-05-09T08:18:11.044Z,67.64
2023-05-09T08:19:07.656Z,66.58
2023-05-09T08:20:05.762Z,66.30
2023-05-09T08:21:02.369Z,65.85
2023-05-09T08:21:59.065Z,69.60
2023-05-09T08:22:55.702Z,67.53
2023-05-09T08:23:52.997Z,67.25
2023-05-09T08:24:49.596Z,67.92
2023-05-09T08:25:46.178Z,65.84
2023-05-09T08:26:42.824Z,65.36
2023-05-09T08:27:39.451Z,64.34
2023-05-09T08:28:36.077Z,65.81
2023-05-09T08:29:32.753Z,65.27
2023-05-09T08:30:29.657Z,68.57
2023-05-09T08:31:27.179Z,67.93
2023-05-09T08:32:23.940Z,66.41
2023-05-09T08:33:20.861Z,64.87
2023-05-09T08:34:17.457Z,65.97
2023-05-09T08:35:14.545Z,66.89
2023-05-09T08:36:11.413Z,67.31
2023-05-09T08:37:08.032Z,66.37
2023-05-09T08:38:04.633Z,65.74
2023-05-09T08:39:01.224Z,65.88
2023-05-09T08:39:57.895Z,65.04
2023-05-09T08:41:00.981Z,64.28
2023-05-09T08:42:02.371Z,65.36
2023-05-09T08:42:59.522Z,65.74
2023-05-09T08:43:56.051Z,65.19
2023-05-09T08:44:53.100Z,63.87
2023-05-09T08:45:58.140Z,64.92
2023-05-09T08:47:02.810Z,64.70
2023-05-09T08:48:00.242Z,63.08
2023-05-09T08:48:58.166Z,62.74
2023-05-09T08:49:55.145Z,63.82
2023-05-09T08:50:52.918Z,64.13
2023-05-09T08:51:50.956Z,62.66
2023-05-09T08:52:48.147Z,63.54
2023-05-09T08:53:45.118Z,64.22
2023-05-09T08:54:44.061Z,60.39
2023-05-09T08:55:40.857Z,61.41
2023-05-09T08:56:37.782Z,60.75
2023-05-09T08:57:37.833Z,59.95
2023-05-09T08:58:34.715Z,64.24
2023-05-09T08:59:33.218Z,65.74
2023-05-09T09:00:31.291Z,67.07
2023-05-09T09:01:28.158Z,65.99
2023-05-09T09:02:24.970Z,66.38
2023-05-09T09:03:21.751Z,67.53
2023-05-09T09:04:18.443Z,67.84
2023-05-09T09:05:34.130Z,67.72
2023-05-09T09:06:34.376Z,64.19
2023-05-09T09:07:34.383Z,66.29
2023-05-09T09:08:31.140Z,67.22
2023-05-09T09:09:28.392Z,67.34
2023-05-09T09:10:28.939Z,67.67
2023-05-09T09:11:25.916Z,67.99
2023-05-09T09:12:24.049Z,66.13
2023-05-09T09:13:22.005Z,67.04
2023-05-09T09:14:25.538Z,65.77
2023-05-09T09:15:24.166Z,65.93
2023-05-09T09:16:22.867Z,64.73
2023-05-09T09:17:25.271Z,62.86
2023-05-09T09:18:29.510Z,63.11
2023-05-09T09:19:31.070Z,60.87
2023-05-09T09:20:31.952Z,65.02
2023-05-09T09:21:28.674Z,65.78
2023-05-09T09:22:33.094Z,65.17
2023-05-09T09:23:32.606Z,66.42
2023-05-09T09:24:29.384Z,65.42
2023-05-09T09:25:26.253Z,64.54
2023-05-09T09:26:23.065Z,65.09
2023-05-09T09:27:19.635Z,65.70
2023-05-09T09:28:16.291Z,64.24
2023-05-09T09:29:13.608Z,63.79
2023-05-09T09:30:12.329Z,63.36
2023-05-09T09:31:35.878Z,62.42
2023-05-09T09:32:34.220Z,63.26
2023-05-09T09:33:30.906Z,62.23
2023-05-09T09:34:27.607Z,62.81
2023-05-09T09:35:24.896Z,61.48
2023-05-09T09:36:29.129Z,60.73
2023-05-09T09:37:25.820Z,58.84
2023-05-09T09:38:24.538Z,59.13
2023-05-09T09:39:22.143Z,60.20
2023-05-09T09:40:18.997Z,59.83
2023-05-09T09:41:15.870Z,58.92
2023-05-09T09:42:13.350Z,58.41
2023-05-09T09:43:10.380Z,57.32
2023-05-09T09:44:11.510Z,55.60
2023-05-09T09:45:16.543Z,57.41
2023-05-09T09:46:14.204Z,57.10
2023-05-09T09:47:11.586Z,58.26
2023-05-09T09:48:08.273Z,60.43
2023-05-09T09:49:04.932Z,59.13
2023-05-09T09:50:15.708Z,58.75
2023-05-09T09:51:12.806Z,58.31
2023-05-09T09:52:09.412Z,55.92
2023-05-09T09:53:06.282Z,57.11
2023-05-09T09:54:04.930Z,58.08
2023-05-09T09:55:01.928Z,58.55
2023-05-09T09:55:58.839Z,57.25
2023-05-09T09:56:56.776Z,59.82
2023-05-09T09:57:53.551Z,59.96
2023-05-09T09:58:50.484Z,60.03
2023-05-09T09:59:58.708Z,61.17
2023-05-09T10:01:07.285Z,59.12
2023-05-09T10:02:07.914Z,57.08
2023-05-09T10:03:05.020Z,56.72
2023-05-09T10:04:03.506Z,54.75
2023-05-09T10:05:07.992Z,56.13
2023-05-09T10:06:05.433Z,55.46
2023-05-09T10:07:04.713Z,55.46
2023-05-09T10:08:07.480Z,54.86
2023-05-09T10:09:04.146Z,56.00
2023-05-09T10:10:05.884Z,52.66
2023-05-09T10:11:02.552Z,53.13
2023-05-09T10:12:04.223Z,53.78
2023-05-09T10:13:04.578Z,51.76
2023-05-09T10:14:01.356Z,50.85
2023-05-09T10:14:57.991Z,50.20
2023-05-09T10:15:58.061Z,50.72
2023-05-09T10:16:59.429Z,50.99
2023-05-09T10:18:01.312Z,50.14
2023-05-09T10:18:58.117Z,52.53
2023-05-09T10:19:55.565Z,52.91
2023-05-09T10:20:53.313Z,51.22
2023-05-09T10:21:53.111Z,51.06
2023-05-09T10:22:54.093Z,50.95
2023-05-09T10:23:52.902Z,50.32
2023-05-09T10:25:23.086Z,49.27
2023-05-09T10:26:27.780Z,47.77
2023-05-09T10:27:27.723Z,50.76
2023-05-09T10:28:31.278Z,48.99
2023-05-09T10:29:31.906Z,51.29
2023-05-09T10:30:35.152Z,50.55
2023-05-09T10:31:34.137Z,50.96
2023-05-09T10:32:54.542Z,50.47
2023-05-09T10:33:51.589Z,52.09
2023-05-09T10:34:53.350Z,51.54
2023-05-09T10:35:52.304Z,49.48
2023-05-09T10:36:49.584Z,49.05
2023-05-09T10:37:46.721Z,49.03
2023-05-09T10:38:44.149Z,50.04
2023-05-09T10:39:44.717Z,47.35
2023-05-09T10:40:42.465Z,47.67
2023-05-09T10:41:40.241Z,48.45
2023-05-09T10:42:37.486Z,49.09
2023-05-09T10:43:36.596Z,47.68
2023-05-09T10:44:33.470Z,46.75
2023-05-09T10:45:30.299Z,46.10
2023-05-09T10:46:27.634Z,48.87
2023-05-09T10:47:28.031Z,46.98
2023-05-09T10:48:25.476Z,48.34
2023-05-09T10:49:22.756Z,48.36
2023-05-09T10:50:21.412Z,48.51
2023-05-09T10:51:18.329Z,46.89
2023-05-09T10:52:14.972Z,46.66
2023-05-09T10:53:14.261Z,45.36
2023-05-09T10:54:18.091Z,46.11
2023-05-09T10:55:14.878Z,47.42
2023-05-09T10:56:24.889Z,45.23
2023-05-09T10:57:21.494Z,45.36
2023-05-09T10:58:19.756Z,47.40
2023-05-09T10:59:42.528Z,47.34
2023-05-09T11:00:42.640Z,46.07
2023-05-09T11:01:39.711Z,46.36
2023-05-09T11:02:38.686Z,47.81
2023-05-09T11:03:55.762Z,49.47
2023-05-09T11:05:19.314Z,46.33
2023-05-09T11:06:48.928Z,49.58
2023-05-09T11:07:45.796Z,49.83
2023-05-09T11:08:43.862Z,46.27
2023-05-09T11:09:43.511Z,48.99
2023-05-09T11:10:43.372Z,47.66
2023-05-09T11:11:51.914Z,48.12
2023-05-09T11:12:57.778Z,48.28
2023-05-09T11:13:58.084Z,47.50
2023-05-09T11:15:06.357Z,47.23
2023-05-09T11:16:02.953Z,46.42
2023-05-09T11:17:02.097Z,46.50
2023-05-09T11:18:10.640Z,47.18
2023-05-09T11:19:08.604Z,46.85
2023-05-09T11:20:06.945Z,48.08
2023-05-09T11:21:09.629Z,47.91
2023-05-09T11:22:14.187Z,48.39
2023-05-09T11:23:17.304Z,47.23
2023-05-09T11:24:17.169Z,48.85
2023-05-09T11:25:15.406Z,47.71
2023-05-09T11:26:15.019Z,46.85
2023-05-09T11:27:25.156Z,47.34
2023-05-09T11:28:29.935Z,51.84
2023-05-09T11:29:30.301Z,50.62
2023-05-09T11:30:42.667Z,46.32
2023-05-09T11:32:06.674Z,46.79
2023-05-09T11:33:06.859Z,45.72
2023-05-09T11:34:06.394Z,48.14
2023-05-09T11:35:15.847Z,50.46
2023-05-09T11:36:20.031Z,50.10
2023-05-09T11:37:18.226Z,50.80
2023-05-09T11:38:22.038Z,49.74
2023-05-09T11:39:25.368Z,50.53
2023-05-09T11:40:23.115Z,52.08
2023-05-09T11:41:19.846Z,51.08
2023-05-09T11:42:17.506Z,50.51
2023-05-09T11:43:14.519Z,51.40
2023-05-09T11:44:21.195Z,51.33
2023-05-09T11:45:18.321Z,50.06
2023-05-09T11:46:15.069Z,49.53
2023-05-09T11:47:11.937Z,48.52
2023-05-09T11:48:09.062Z,49.26
2023-05-09T11:49:07.824Z,49.44
2023-05-09T11:50:13.290Z,48.87
2023-05-09T11:51:19.384Z,49.65
2023-05-09T11:52:17.159Z,48.79
2023-05-09T11:53:13.810Z,52.78
2023-05-09T11:54:12.051Z,51.89
2023-05-09T11:55:12.659Z,51.12
2023-05-09T11:56:09.745Z,52.38
2023-05-09T11:57:07.322Z,53.83
2023-05-09T11:58:07.289Z,51.65
2023-05-09T11:59:04.086Z,55.93
2023-05-09T12:00:01.496Z,54.80
2023-05-09T12:00:58.614Z,57.40
2023-05-09T12:01:55.229Z,55.32
2023-05-09T12:02:53.320Z,54.77
2023-05-09T12:03:51.358Z,52.60
2023-05-09T12:04:48.472Z,52.08
2023-05-09T12:05:45.195Z,52.99
2023-05-09T12:06:47.430Z,53.06
2023-05-09T12:07:44.669Z,54.55
2023-05-09T12:08:41.626Z,53.13
2023-05-09T12:09:38.340Z,53.88
2023-05-09T12:10:38.746Z,53.32
2023-05-09T12:11:37.131Z,52.93
2023-05-09T12:12:37.726Z,55.06
2023-05-09T12:13:35.431Z,56.24
2023-05-09T12:14:34.863Z,55.93
2023-05-09T12:15:37.870Z,55.69
2023-05-09T12:16:34.953Z,55.30
2023-05-09T12:17:31.904Z,54.81
2023-05-09T12:18:28.507Z,55.32
2023-05-09T12:19:26.197Z,54.43
2023-05-09T12:20:22.922Z,56.42
2023-05-09T12:21:20.142Z,59.68
2023-05-09T12:22:16.765Z,58.01
2023-05-09T12:23:14.679Z,56.17
2023-05-09T12:24:13.374Z,56.80
2023-05-09T12:25:11.913Z,55.83
2023-05-09T12:26:08.791Z,54.77
2023-05-09T12:27:08.019Z,54.67
2023-05-09T12:28:05.413Z,56.43
2023-05-09T12:29:02.171Z,54.94
2023-05-09T12:30:08.486Z,58.47
2023-05-09T12:31:07.034Z,56.83
2023-05-09T12:32:03.976Z,56.07
2023-05-09T12:33:00.992Z,54.66
2023-05-09T12:33:57.760Z,54.77
2023-05-09T12:34:55.095Z,52.97
2023-05-09T12:36:11.855Z,54.80
2023-05-09T12:37:18.411Z,54.13